Time;durP1;ratioP1;P1;durP2;ratioP2;P2;SDS_P1;SDS_P2;PMS_P1;PMS_P2;Temp;Humidity;BMP_temperature;BMP_pressure;BME280_temperature;BME280_humidity;BME280_pressure;Samples;Min_cycle;Max_cycle;Signal;HPM_P1;HPM_P2
2023/04/21 00:01:29;;;;;;;1999.90;999.90;;;5.30;99.90;;;;;;5072761;28;20032;-72
2023/04/21 00:03:55;;;;;;;1999.90;999.90;;;5.40;99.90;;;;;;5075370;28;20032;-76
2023/04/21 00:06:22;;;;;;;1999.90;999.90;;;5.40;99.90;;;;;;5038507;28;20123;-75
2023/04/21 00:08:48;;;;;;;1999.90;999.90;;;5.30;99.90;;;;;;5076059;28;20389;-75
2023/04/21 00:11:14;;;;;;;1999.90;999.90;;;5.20;99.90;;;;;;5072949;28;20028;-75
2023/04/21 00:13:40;;;;;;;1999.90;999.90;;;5.40;99.90;;;;;;5070396;28;20062;-75
2023/04/21 00:16:06;;;;;;;1999.90;999.90;;;5.40;99.90;;;;;;5072983;28;20115;-74
2023/04/21 00:18:32;;;;;;;1999.90;999.90;;;5.50;99.90;;;;;;5080331;28;20439;-74
2023/04/21 00:20:58;;;;;;;1999.90;999.90;;;5.50;99.90;;;;;;5069606;28;20059;-75
2023/04/21 00:23:24;;;;;;;1999.90;999.90;;;5.50;99.90;;;;;;5074265;28;20059;-76
2023/04/21 00:25:49;;;;;;;1999.90;999.90;;;5.40;99.90;;;;;;5078773;28;20024;-75
2023/04/21 00:28:15;;;;;;;1999.90;999.90;;;5.50;99.90;;;;;;5066833;28;20075;-76
2023/04/21 00:30:41;;;;;;;1999.90;999.90;;;5.60;99.90;;;;;;5074833;28;20060;-74
2023/04/21 00:33:06;;;;;;;1999.90;999.90;;;5.70;99.90;;;;;;5074980;28;20024;-75
2023/04/21 00:35:32;;;;;;;1999.90;999.90;;;5.60;99.90;;;;;;5073548;28;20039;-75
2023/04/21 00:37:58;;;;;;;1999.90;999.90;;;5.60;99.90;;;;;;5058817;28;20472;-75
2023/04/21 00:40:24;;;;;;;1999.90;999.90;;;5.60;99.90;;;;;;5070607;28;20079;-75
2023/04/21 00:42:49;;;;;;;1999.90;999.90;;;5.60;99.90;;;;;;5075548;28;20058;-75
2023/04/21 00:45:15;;;;;;;1999.90;999.90;;;5.60;99.90;;;;;;5059883;28;20071;-75
2023/04/21 00:47:41;;;;;;;1999.90;999.90;;;5.60;99.90;;;;;;5071482;28;20028;-74
2023/04/21 00:50:08;;;;;;;1999.90;999.90;;;5.60;99.90;;;;;;5069724;28;20043;-74
2023/04/21 00:52:34;;;;;;;1999.90;999.90;;;5.60;99.90;;;;;;5076802;28;20040;-74
2023/04/21 00:55:00;;;;;;;1999.90;999.90;;;5.50;99.90;;;;;;5049355;28;20497;-73
2023/04/21 00:57:30;;;;;;;1999.90;999.90;;;5.60;99.90;;;;;;5073249;28;20033;-74
2023/04/21 00:59:55;;;;;;;1999.90;999.90;;;5.50;99.90;;;;;;5071793;28;20036;-75
2023/04/21 01:02:22;;;;;;;1999.90;999.90;;;5.50;99.90;;;;;;5077476;28;20100;-74
2023/04/21 01:04:47;;;;;;;1999.90;999.90;;;5.50;99.90;;;;;;5055909;28;20060;-74
2023/04/21 01:07:13;;;;;;;1999.90;999.90;;;5.50;99.90;;;;;;5057020;28;20063;-74
2023/04/21 01:09:39;;;;;;;1999.90;999.90;;;5.50;99.90;;;;;;5071963;28;20033;-74
2023/04/21 01:12:14;;;;;;;1999.90;999.90;;;5.50;99.90;;;;;;5057853;28;20031;-75
2023/04/21 01:14:40;;;;;;;1999.90;999.90;;;5.40;99.90;;;;;;5072819;28;20033;-74
2023/04/21 01:17:06;;;;;;;1999.90;999.90;;;5.30;99.90;;;;;;5040625;28;20031;-74
2023/04/21 01:19:36;;;;;;;1999.90;999.90;;;5.30;99.90;;;;;;5073107;28;20459;-74
2023/04/21 01:22:02;;;;;;;1999.90;999.90;;;5.30;99.90;;;;;;5074152;28;20470;-74
2023/04/21 01:24:35;;;;;;;1999.90;999.90;;;5.40;99.90;;;;;;5037746;28;20513;-74
2023/04/21 01:27:00;;;;;;;1999.90;999.90;;;5.40;99.90;;;;;;5074343;28;20036;-74
2023/04/21 01:29:26;;;;;;;1999.90;999.90;;;5.40;99.90;;;;;;5069957;28;20090;-74
2023/04/21 01:31:52;;;;;;;1999.90;999.90;;;5.30;99.90;;;;;;5072776;28;20028;-74
2023/04/21 01:34:17;;;;;;;1999.90;999.90;;;5.30;99.90;;;;;;5072013;28;20558;-75
2023/04/21 01:36:43;;;;;;;1999.90;999.90;;;5.20;99.90;;;;;;5058520;28;20062;-75
2023/04/21 01:39:09;;;;;;;1999.90;999.90;;;5.20;99.90;;;;;;5057760;28;20033;-74
2023/04/21 01:41:35;;;;;;;1999.90;999.90;;;5.30;99.90;;;;;;5071551;28;20123;-75
2023/04/21 01:44:00;;;;;;;1999.90;999.90;;;5.30;99.90;;;;;;5075191;28;20032;-75
2023/04/21 01:46:26;;;;;;;1999.90;999.90;;;5.40;99.90;;;;;;5076045;28;20043;-74
2023/04/21 01:48:52;;;;;;;1999.90;999.90;;;5.30;99.90;;;;;;5075222;28;20040;-74
2023/04/21 01:51:18;;;;;;;1999.90;999.90;;;5.20;99.90;;;;;;5077308;28;20016;-74
2023/04/21 01:53:43;;;;;;;1999.90;999.90;;;5.10;99.90;;;;;;5077409;28;20036;-74
2023/04/21 01:56:13;;;;;;;1999.90;999.90;;;5.00;99.90;;;;;;5074043;28;20039;-74
2023/04/21 01:58:38;;;;;;;1999.90;999.90;;;5.00;99.90;;;;;;5060803;28;20569;-74
2023/04/21 02:01:04;;;;;;;1999.90;999.90;;;4.90;99.90;;;;;;5064083;28;20071;-74
2023/04/21 02:03:30;;;;;;;1999.90;999.90;;;4.90;99.90;;;;;;5074779;28;20064;-73
2023/04/21 02:05:57;;;;;;;1999.90;999.90;;;4.70;99.90;;;;;;5071823;28;20024;-75
2023/04/21 02:08:22;;;;;;;1999.90;999.90;;;4.60;99.90;;;;;;5057667;28;20488;-74
2023/04/21 02:10:48;;;;;;;1999.90;999.90;;;4.50;99.90;;;;;;5076314;28;20115;-73
2023/04/21 02:13:14;;;;;;;1999.90;999.90;;;4.50;99.90;;;;;;5076681;28;20034;-74
2023/04/21 02:15:40;;;;;;;1999.90;999.90;;;4.50;99.90;;;;;;5071849;28;20467;-74
2023/04/21 02:18:07;;;;;;;1999.90;999.90;;;4.40;99.90;;;;;;5070684;28;20072;-74
2023/04/21 02:20:32;;;;;;;1999.90;999.90;;;4.40;99.90;;;;;;5062138;28;20041;-74
2023/04/21 02:22:58;;;;;;;1999.90;999.90;;;4.50;99.90;;;;;;5076991;28;20049;-75
2023/04/21 02:25:24;;;;;;;1999.90;999.90;;;4.40;99.90;;;;;;5073374;28;20494;-73
2023/04/21 02:27:50;;;;;;;1999.90;999.90;;;4.30;99.90;;;;;;5075899;28;20038;-75
2023/04/21 02:30:15;;;;;;;1999.90;999.90;;;4.30;99.90;;;;;;5071135;28;20033;-74
2023/04/21 02:32:41;;;;;;;1999.90;999.90;;;4.40;99.90;;;;;;5078616;28;20052;-74
2023/04/21 02:35:07;;;;;;;1999.90;999.90;;;4.40;99.90;;;;;;5074175;28;20032;-76
2023/04/21 02:37:34;;;;;;;1999.90;999.90;;;4.40;99.90;;;;;;5074981;28;20312;-75
2023/04/21 02:39:59;;;;;;;1999.90;999.90;;;4.40;99.90;;;;;;5072826;28;20024;-74
2023/04/21 02:42:25;;;;;;;1999.90;999.90;;;4.30;99.90;;;;;;5075769;28;20040;-74
2023/04/21 02:44:51;;;;;;;1999.90;999.90;;;4.30;99.90;;;;;;5055929;28;20031;-74
2023/04/21 02:47:16;;;;;;;1999.90;999.90;;;4.30;99.90;;;;;;5075439;28;20032;-74
2023/04/21 02:49:42;;;;;;;1999.90;999.90;;;4.40;99.90;;;;;;5067409;28;20036;-76
2023/04/21 02:52:08;;;;;;;1999.90;999.90;;;4.40;99.90;;;;;;5075786;28;20029;-76
2023/04/21 02:54:34;;;;;;;1999.90;999.90;;;4.30;99.90;;;;;;5073147;28;20025;-75
2023/04/21 02:57:00;;;;;;;1999.90;999.90;;;4.20;99.90;;;;;;5060306;28;20521;-74
2023/04/21 02:59:26;;;;;;;1999.90;999.90;;;4.30;99.90;;;;;;5071117;28;20028;-74
2023/04/21 03:01:52;;;;;;;1999.90;999.90;;;4.10;99.90;;;;;;5058703;28;20413;-75
2023/04/21 03:04:18;;;;;;;1999.90;999.90;;;4.00;99.90;;;;;;5071644;28;20056;-74
2023/04/21 03:06:44;;;;;;;1999.90;999.90;;;3.80;99.90;;;;;;5072199;28;20577;-74
2023/04/21 03:09:09;;;;;;;1999.90;999.90;;;3.90;99.90;;;;;;5056962;28;20103;-74
2023/04/21 03:11:35;;;;;;;1999.90;999.90;;;3.90;99.90;;;;;;5076394;28;20028;-74
2023/04/21 03:14:01;;;;;;;1999.90;999.90;;;4.00;99.90;;;;;;5070285;28;20047;-75
2023/04/21 03:16:26;;;;;;;1999.90;999.90;;;4.00;99.90;;;;;;5075832;28;20051;-74
2023/04/21 03:18:52;;;;;;;1999.90;999.90;;;4.00;99.90;;;;;;5040399;28;20121;-75
2023/04/21 03:21:18;;;;;;;1999.90;999.90;;;4.00;99.90;;;;;;5070700;28;20021;-74
2023/04/21 03:23:43;;;;;;;1999.90;999.90;;;3.90;99.90;;;;;;5072499;28;20377;-73
2023/04/21 03:26:10;;;;;;;1999.90;999.90;;;4.00;99.90;;;;;;5073810;28;20036;-73
2023/04/21 03:28:35;;;;;;;1999.90;999.90;;;3.90;99.90;;;;;;5075023;28;20163;-74
2023/04/21 03:31:01;;;;;;;1999.90;999.90;;;3.90;99.90;;;;;;5056896;28;20124;-74
2023/04/21 03:33:27;;;;;;;1999.90;999.90;;;3.80;99.90;;;;;;5053065;28;20410;-74
2023/04/21 03:35:52;;;;;;;1999.90;999.90;;;4.00;99.90;;;;;;5065146;28;20577;-74
2023/04/21 03:38:18;;;;;;;1999.90;999.90;;;4.20;99.90;;;;;;5058629;28;20033;-73
2023/04/21 03:40:43;;;;;;;1999.90;999.90;;;4.30;99.90;;;;;;5076186;28;20046;-74
2023/04/21 03:43:09;;;;;;;1999.90;999.90;;;4.30;99.90;;;;;;5068948;28;20054;-75
2023/04/21 03:45:35;;;;;;;1999.90;999.90;;;4.30;99.90;;;;;;5072740;28;20033;-74
2023/04/21 03:48:00;;;;;;;1999.90;999.90;;;4.30;99.90;;;;;;5055753;28;20036;-74
2023/04/21 03:50:26;;;;;;;1999.90;999.90;;;4.30;99.90;;;;;;5060333;28;20031;-74
2023/04/21 03:52:52;;;;;;;1999.90;999.90;;;4.20;99.90;;;;;;5039943;28;20379;-74
2023/04/21 03:55:17;;;;;;;1999.90;999.90;;;4.10;99.90;;;;;;5074190;28;20072;-74
2023/04/21 03:57:43;;;;;;;1999.90;999.90;;;4.00;99.90;;;;;;5070408;28;20111;-74
2023/04/21 04:00:09;;;;;;;1999.90;999.90;;;4.20;99.90;;;;;;5072597;28;20040;-76
2023/04/21 04:02:36;;;;;;;1999.90;999.90;;;4.10;99.90;;;;;;5071573;28;20114;-74
2023/04/21 04:05:04;;;;;;;1999.90;999.90;;;4.10;99.90;;;;;;5071044;28;20038;-73
2023/04/21 04:07:30;;;;;;;1999.90;999.90;;;4.20;99.90;;;;;;5070495;28;20074;-74
2023/04/21 04:09:56;;;;;;;1999.90;999.90;;;4.30;99.90;;;;;;5069382;28;20064;-75
2023/04/21 04:12:21;;;;;;;1999.90;999.90;;;4.30;99.90;;;;;;5054254;28;20063;-74
2023/04/21 04:14:47;;;;;;;1999.90;999.90;;;4.40;99.90;;;;;;5058675;28;20043;-74
2023/04/21 04:17:13;;;;;;;1999.90;999.90;;;4.30;99.90;;;;;;5055799;28;20047;-74
2023/04/21 04:19:38;;;;;;;1999.90;999.90;;;4.20;99.90;;;;;;5068800;28;20540;-74
2023/04/21 04:22:04;;;;;;;1999.90;999.90;;;4.20;99.90;;;;;;5052446;28;20061;-72
2023/04/21 04:24:32;;;;;;;1999.90;999.90;;;4.40;99.90;;;;;;5062525;28;20041;-71
2023/04/21 04:26:58;;;;;;;1999.90;999.90;;;4.40;99.90;;;;;;5067682;28;20044;-71
2023/04/21 04:29:25;;;;;;;1999.90;999.90;;;4.40;99.90;;;;;;5067435;28;20043;-71
2023/04/21 04:31:52;;;;;;;1999.90;999.90;;;4.30;99.90;;;;;;5065158;28;20029;-72
2023/04/21 04:34:18;;;;;;;1999.90;999.90;;;4.30;99.90;;;;;;5050111;28;20425;-72
2023/04/21 04:36:44;;;;;;;1999.90;999.90;;;4.40;99.90;;;;;;5048726;28;20125;-72
2023/04/21 04:39:11;;;;;;;1999.90;999.90;;;4.50;99.90;;;;;;5071702;28;20460;-75
2023/04/21 04:41:37;;;;;;;1999.90;999.90;;;4.60;99.90;;;;;;5075974;28;20490;-75
2023/04/21 04:44:03;;;;;;;1999.90;999.90;;;4.60;99.90;;;;;;5068754;28;20043;-80
2023/04/21 04:46:30;;;;;;;1999.90;999.90;;;4.60;99.90;;;;;;5064663;28;20437;-80
2023/04/21 04:48:55;;;;;;;1999.90;999.90;;;4.60;99.90;;;;;;5067847;28;20487;-79
2023/04/21 04:51:22;;;;;;;1999.90;999.90;;;4.60;99.90;;;;;;5076065;28;20039;-82
2023/04/21 04:53:48;;;;;;;1999.90;999.90;;;4.60;99.90;;;;;;5073533;28;20033;-77
2023/04/21 04:56:14;;;;;;;1999.90;999.90;;;4.70;99.90;;;;;;5076348;28;20032;-78
2023/04/21 04:58:39;;;;;;;1999.90;999.90;;;4.70;99.90;;;;;;5055840;28;20035;-79
2023/04/21 05:01:12;;;;;;;1999.90;999.90;;;4.80;99.90;;;;;;5050756;28;20465;-80
2023/04/21 05:03:38;;;;;;;1999.90;999.90;;;4.80;99.90;;;;;;5054762;28;20037;-81
2023/04/21 05:06:04;;;;;;;1999.90;999.90;;;4.80;99.90;;;;;;5073995;28;20091;-79
2023/04/21 05:08:29;;;;;;;1999.90;999.90;;;4.80;99.90;;;;;;5068397;28;20102;-79
2023/04/21 05:10:55;;;;;;;1999.90;999.90;;;4.80;99.90;;;;;;5074759;28;20119;-79
2023/04/21 05:13:21;;;;;;;1999.90;999.90;;;4.80;99.90;;;;;;5050814;28;20024;-81
2023/04/21 05:15:46;;;;;;;1999.90;999.90;;;4.70;99.90;;;;;;5069735;28;20057;-78
2023/04/21 05:18:12;;;;;;;1999.90;999.90;;;4.60;99.90;;;;;;5057411;28;20028;-81
2023/04/21 05:20:41;;;;;;;1999.90;999.90;;;4.60;99.90;;;;;;5081466;28;20033;-78
2023/04/21 05:23:08;;;;;;;1999.90;999.90;;;4.60;99.90;;;;;;5071133;28;20055;-86
2023/04/21 05:25:34;;;;;;;1999.90;999.90;;;4.50;99.90;;;;;;5056036;28;20040;-80
2023/04/21 05:27:59;;;;;;;1999.90;999.90;;;4.60;99.90;;;;;;5070828;28;20024;-82
2023/04/21 05:30:25;;;;;;;1999.90;999.90;;;4.70;99.90;;;;;;5073693;28;20145;-79
2023/04/21 05:32:51;;;;;;;1999.90;999.90;;;4.70;99.90;;;;;;5057820;28;20035;-76
2023/04/21 05:35:16;;;;;;;1999.90;999.90;;;4.70;99.90;;;;;;5058561;28;20030;-74
2023/04/21 05:37:42;;;;;;;1999.90;999.90;;;4.70;99.90;;;;;;5056875;28;20573;-74
2023/04/21 05:40:08;;;;;;;1999.90;999.90;;;4.70;99.90;;;;;;5072227;28;20199;-74
2023/04/21 05:42:34;;;;;;;1999.90;999.90;;;4.60;99.90;;;;;;5074681;28;20040;-73
2023/04/21 05:45:00;;;;;;;1999.90;999.90;;;4.70;99.90;;;;;;5054613;28;20078;-74
2023/04/21 05:47:25;;;;;;;1999.90;999.90;;;4.70;99.90;;;;;;5064110;28;20066;-74
2023/04/21 05:49:52;;;;;;;1011.72;510.95;;;4.70;99.90;;;;;;5051045;28;20459;-74
2023/04/21 05:52:20;;;;;;;1999.90;999.90;;;4.80;99.90;;;;;;5069782;28;20877;-75
2023/04/21 05:54:46;;;;;;;1999.90;999.90;;;4.80;99.90;;;;;;5072728;28;20031;-74
2023/04/21 05:57:11;;;;;;;1999.90;999.90;;;4.80;99.90;;;;;;5061130;28;20086;-74
2023/04/21 05:59:37;;;;;;;1999.90;999.90;;;5.00;99.90;;;;;;5054833;28;20490;-74
2023/04/21 06:02:04;;;;;;;1999.90;999.90;;;5.00;99.90;;;;;;5073376;28;20091;-74
2023/04/21 06:04:30;;;;;;;1999.90;999.90;;;5.10;99.90;;;;;;5065440;28;20071;-74
2023/04/21 06:06:55;;;;;;;1999.90;999.90;;;5.10;99.90;;;;;;5067992;28;20029;-75
2023/04/21 06:09:21;;;;;;;1999.90;999.90;;;5.10;99.90;;;;;;5054614;28;20060;-74
2023/04/21 06:11:47;;;;;;;1999.90;999.90;;;5.00;99.90;;;;;;5070670;28;20498;-75
2023/04/21 06:14:12;;;;;;;1999.90;999.90;;;5.00;99.90;;;;;;5078070;28;20478;-75
2023/04/21 06:16:38;;;;;;;1999.90;999.90;;;5.00;99.90;;;;;;5060003;28;20036;-74
2023/04/21 06:19:04;;;;;;;1999.90;999.90;;;5.10;99.90;;;;;;5060045;28;20037;-74
2023/04/21 06:21:29;;;;;;;1999.90;999.90;;;5.20;99.90;;;;;;5053521;28;20020;-75
2023/04/21 06:23:55;;;;;;;1999.90;999.90;;;5.20;99.90;;;;;;5047713;28;20388;-74
2023/04/21 06:26:21;;;;;;;1999.90;999.90;;;5.20;99.90;;;;;;5050360;28;20501;-74
2023/04/21 06:28:46;;;;;;;1999.90;999.90;;;5.20;99.90;;;;;;5073266;28;20434;-74
2023/04/21 06:31:15;;;;;;;1999.90;999.90;;;5.30;99.90;;;;;;5057441;28;20048;-75
2023/04/21 06:33:41;;;;;;;1999.90;999.90;;;5.30;99.90;;;;;;5059271;28;20032;-74
2023/04/21 06:36:07;;;;;;;1999.90;999.90;;;5.40;99.90;;;;;;5055032;28;20406;-75
2023/04/21 06:38:32;;;;;;;1999.90;999.90;;;5.50;99.90;;;;;;5076245;28;20039;-74
2023/04/21 06:40:58;;;;;;;1999.90;999.90;;;5.40;99.90;;;;;;5060153;28;20033;-75
2023/04/21 06:43:24;;;;;;;1999.90;999.90;;;5.50;99.90;;;;;;5060271;28;20056;-75
2023/04/21 06:45:50;;;;;;;1999.90;999.90;;;5.50;99.90;;;;;;5045480;28;20028;-75
2023/04/21 06:48:15;;;;;;;1999.90;999.90;;;5.60;99.90;;;;;;5052978;28;20564;-74
2023/04/21 06:50:43;;;;;;;1999.90;999.90;;;5.60;99.90;;;;;;5069862;28;20403;-74
2023/04/21 06:53:10;;;;;;;1999.90;999.90;;;5.60;99.90;;;;;;5064207;28;20021;-74
2023/04/21 06:55:36;;;;;;;1999.90;999.90;;;5.70;99.90;;;;;;5063147;28;20028;-74
2023/04/21 06:58:01;;;;;;;1999.90;999.90;;;5.80;99.90;;;;;;5064922;28;20032;-74
2023/04/21 07:00:27;;;;;;;1999.90;999.90;;;5.80;99.90;;;;;;5071837;28;20606;-75
2023/04/21 07:02:53;;;;;;;1999.90;999.90;;;6.00;99.90;;;;;;5069500;28;20036;-74
2023/04/21 07:05:18;;;;;;;1999.90;999.90;;;5.90;99.90;;;;;;5064758;28;20024;-74
2023/04/21 07:07:44;;;;;;;1999.90;999.90;;;5.90;99.90;;;;;;5059741;28;20483;-74
2023/04/21 07:10:10;;;;;;;1999.90;999.90;;;5.80;99.90;;;;;;5057730;28;20037;-75
2023/04/21 07:12:35;;;;;;;1999.90;999.90;;;6.00;99.90;;;;;;5070414;28;20067;-75
2023/04/21 07:15:02;;;;;;;1999.90;999.90;;;6.20;99.90;;;;;;5065627;28;20036;-75
2023/04/21 07:17:27;;;;;;;1999.90;999.90;;;6.60;99.90;;;;;;5042599;28;20024;-74
2023/04/21 07:19:53;;;;;;;1999.90;999.90;;;6.80;99.90;;;;;;5054882;28;20310;-75
2023/04/21 07:22:19;;;;;;;1999.90;999.90;;;6.90;99.90;;;;;;5058447;28;20673;-74
2023/04/21 07:24:44;;;;;;;1999.90;999.90;;;7.30;99.90;;;;;;5052984;28;20536;-75
2023/04/21 07:27:10;;;;;;;1999.90;999.90;;;7.60;99.90;;;;;;5075582;28;20518;-75
2023/04/21 07:29:36;;;;;;;1999.90;999.90;;;8.00;99.90;;;;;;5042435;28;20913;-75
2023/04/21 07:32:02;;;;;;;1999.90;999.90;;;8.10;99.90;;;;;;5056033;28;20472;-74
2023/04/21 07:34:27;;;;;;;133.52;128.10;;;8.20;99.90;;;;;;5034047;28;20108;-75
2023/04/21 07:36:55;;;;;;;1999.90;999.90;;;8.30;99.90;;;;;;5058821;28;20032;-75
2023/04/21 07:39:20;;;;;;;1999.90;999.90;;;8.10;99.90;;;;;;5056631;28;20494;-75
2023/04/21 07:41:46;;;;;;;1523.72;772.78;;;7.90;99.90;;;;;;5073168;28;20057;-75
2023/04/21 07:44:12;;;;;;;1517.22;766.50;;;8.00;99.90;;;;;;5045487;28;20032;-75
2023/04/21 07:46:38;;;;;;;1999.90;999.90;;;8.10;99.90;;;;;;5058012;28;20036;-75
2023/04/21 07:49:03;;;;;;;1999.90;999.90;;;8.40;99.90;;;;;;5043385;28;20036;-75
2023/04/21 07:51:30;;;;;;;1999.90;999.90;;;8.60;99.90;;;;;;5068687;28;20091;-74
2023/04/21 07:53:56;;;;;;;1999.90;999.90;;;8.90;99.90;;;;;;5057877;28;20404;-74
2023/04/21 07:56:22;;;;;;;1999.90;999.90;;;8.70;99.90;;;;;;5072663;28;20035;-75
2023/04/21 07:58:47;;;;;;;1999.90;999.90;;;8.80;99.90;;;;;;5054728;28;20516;-74
2023/04/21 08:01:14;;;;;;;1999.90;999.90;;;8.90;99.90;;;;;;5070792;28;20024;-74
2023/04/21 08:03:39;;;;;;;1999.90;999.90;;;9.00;99.90;;;;;;5054945;28;20449;-73
2023/04/21 08:06:05;;;;;;;1999.90;999.90;;;9.10;99.90;;;;;;5059522;28;20032;-74
2023/04/21 08:08:31;;;;;;;1999.90;999.90;;;9.30;99.90;;;;;;5075648;28;20124;-75
2023/04/21 08:10:57;;;;;;;1999.90;999.90;;;9.60;99.90;;;;;;5067607;28;20074;-74
2023/04/21 08:13:24;;;;;;;1999.90;999.90;;;9.50;99.90;;;;;;5053725;28;20438;-74
2023/04/21 08:15:53;;;;;;;1999.90;999.90;;;9.60;99.90;;;;;;5078628;28;20060;-75
2023/04/21 08:18:20;;;;;;;1999.90;999.90;;;9.80;99.90;;;;;;5074875;28;20038;-74
2023/04/21 08:20:46;;;;;;;1999.90;999.90;;;9.60;99.90;;;;;;5079152;28;20040;-74
2023/04/21 08:23:13;;;;;;;1999.90;999.90;;;9.50;99.90;;;;;;5074930;28;20110;-74
2023/04/21 08:25:39;;;;;;;1999.90;999.90;;;9.20;99.90;;;;;;5070050;28;20027;-73
2023/04/21 08:28:05;;;;;;;1999.90;999.90;;;8.80;99.90;;;;;;5066014;28;20020;-74
2023/04/21 08:30:30;;;;;;;1999.90;999.90;;;8.90;99.90;;;;;;5073445;28;20028;-74
2023/04/21 08:32:56;;;;;;;1999.90;999.90;;;8.80;99.90;;;;;;5078541;28;20051;-74
2023/04/21 08:35:22;;;;;;;1999.90;999.90;;;8.70;99.90;;;;;;5079942;28;20039;-74
2023/04/21 08:37:47;;;;;;;1999.90;999.90;;;8.80;99.90;;;;;;5060443;28;20094;-74
2023/04/21 08:40:13;;;;;;;1999.90;999.90;;;9.00;99.90;;;;;;5072540;28;20073;-74
2023/04/21 08:42:39;;;;;;;1999.90;999.90;;;9.40;99.90;;;;;;5077584;28;20403;-74
2023/04/21 08:45:05;;;;;;;1999.90;999.90;;;9.40;99.90;;;;;;5074384;28;20036;-74
2023/04/21 08:47:32;;;;;;;1999.90;999.90;;;9.80;99.90;;;;;;5060396;28;20518;-74
2023/04/21 08:49:58;;;;;;;601.67;347.33;;;10.00;99.90;;;;;;5068693;28;20031;-74
2023/04/21 08:52:24;;;;;;;1999.90;999.90;;;10.00;99.90;;;;;;5076565;28;20118;-74
2023/04/21 08:54:52;;;;;;;1999.90;999.90;;;10.30;99.90;;;;;;5053177;28;20027;-74
2023/04/21 08:57:18;;;;;;;1999.90;999.90;;;10.00;99.90;;;;;;5062747;28;20025;-74
2023/04/21 08:59:45;;;;;;;1999.90;999.90;;;9.70;99.90;;;;;;5058638;28;20036;-73
2023/04/21 09:02:17;;;;;;;1999.90;999.90;;;9.80;99.90;;;;;;5079718;28;20037;-74
2023/04/21 09:04:50;;;;;;;1999.90;999.90;;;9.80;99.90;;;;;;5068303;28;20029;-75
2023/04/21 09:07:37;;;;;;;1999.90;999.90;;;10.20;99.90;;;;;;5074358;28;20028;-74
2023/04/21 09:10:04;;;;;;;1999.90;999.90;;;10.50;99.90;;;;;;5074040;28;20024;-75
2023/04/21 09:12:30;;;;;;;1999.90;999.90;;;11.10;99.90;;;;;;5065149;28;20036;-74
2023/04/21 09:15:00;;;;;;;1999.90;999.90;;;11.30;99.90;;;;;;5071322;28;20505;-74
2023/04/21 09:17:32;;;;;;;1999.90;999.90;;;11.30;99.90;;;;;;5076715;28;20079;-74
2023/04/21 09:20:14;;;;;;;1999.90;999.90;;;11.40;99.90;;;;;;5066178;28;20024;-74
2023/04/21 09:22:40;;;;;;;1999.90;999.90;;;11.50;99.90;;;;;;5073352;28;20040;-74
2023/04/21 09:25:06;;;;;;;1999.90;999.90;;;11.30;99.90;;;;;;5069881;28;20555;-74
2023/04/21 09:27:34;;;;;;;1999.90;999.90;;;11.30;99.90;;;;;;5059238;28;20044;-74
2023/04/21 09:30:06;;;;;;;1999.90;999.90;;;11.10;99.90;;;;;;5063113;28;20040;-75
2023/04/21 09:32:39;;;;;;;1999.90;999.90;;;11.20;99.90;;;;;;5072221;28;20090;-74
2023/04/21 09:35:14;;;;;;;1999.90;999.90;;;11.50;99.90;;;;;;5061004;28;20031;-74
2023/04/21 09:37:42;;;;;;;1999.90;999.90;;;11.60;99.90;;;;;;5055291;28;20067;-75
2023/04/21 09:40:13;;;;;;;1999.90;999.90;;;11.60;99.90;;;;;;5072939;28;20124;-75
2023/04/21 09:42:40;;;;;;;1999.90;999.90;;;11.70;99.90;;;;;;5075616;28;20053;-74
2023/04/21 09:45:08;;;;;;;1999.90;999.90;;;11.60;99.90;;;;;;5060719;28;20036;-74
2023/04/21 09:47:39;;;;;;;1999.90;999.90;;;11.80;99.90;;;;;;5076669;28;20132;-74
2023/04/21 09:50:06;;;;;;;1999.90;999.90;;;12.00;99.90;;;;;;5072937;28;20075;-74
2023/04/21 09:52:33;;;;;;;1999.90;999.90;;;11.90;99.90;;;;;;5059462;28;20060;-75
2023/04/21 09:55:05;;;;;;;1999.90;999.90;;;12.40;99.90;;;;;;5073981;28;20065;-75
2023/04/21 09:57:32;;;;;;;1999.90;999.90;;;12.20;99.90;;;;;;5075989;28;20028;-75
2023/04/21 10:00:04;;;;;;;1999.90;999.90;;;12.40;99.90;;;;;;5062553;28;20028;-74
2023/04/21 10:02:30;;;;;;;1999.90;999.90;;;11.90;99.90;;;;;;5059709;28;20040;-74
2023/04/21 10:04:57;;;;;;;1999.90;999.90;;;11.80;99.90;;;;;;5057698;28;20123;-72
2023/04/21 10:07:22;;;;;;;1999.90;999.90;;;12.00;99.90;;;;;;5074464;28;20246;-75
2023/04/21 10:09:53;;;;;;;1999.90;999.90;;;12.20;99.90;;;;;;5054500;28;20411;-74
2023/04/21 10:12:19;;;;;;;1999.90;999.90;;;12.30;99.90;;;;;;5075380;28;20032;-74
2023/04/21 10:14:50;;;;;;;1999.90;999.90;;;12.90;99.90;;;;;;5070349;28;20078;-75
2023/04/21 10:17:15;;;;;;;1999.90;999.90;;;12.90;99.90;;;;;;5076860;28;20099;-75
2023/04/21 10:19:50;;;;;;;1999.90;999.90;;;12.80;99.90;;;;;;5058566;28;20115;-74
2023/04/21 10:22:28;;;;;;;1999.90;999.90;;;12.80;99.90;;;;;;5062234;28;20116;-75
2023/04/21 10:24:56;;;;;;;1999.90;999.90;;;12.90;99.90;;;;;;5067429;28;20724;-75
2023/04/21 10:27:32;;;;;;;1999.90;999.90;;;12.70;99.90;;;;;;5068144;28;20030;-80
2023/04/21 10:29:59;;;;;;;1999.90;999.90;;;12.40;99.90;;;;;;5064060;28;20071;-77
2023/04/21 10:32:38;;;;;;;1999.90;999.90;;;12.80;99.90;;;;;;5046988;28;20094;-77
2023/04/21 10:35:03;;;;;;;1999.90;999.90;;;12.30;99.90;;;;;;5066829;28;20028;-77
2023/04/21 10:37:30;;;;;;;1999.90;999.90;;;12.90;99.90;;;;;;5037006;28;20098;-77
2023/04/21 10:39:56;;;;;;;1999.90;999.90;;;13.30;99.90;;;;;;5069450;28;20537;-77
2023/04/21 10:42:24;;;;;;;1999.90;999.90;;;13.50;99.90;;;;;;5067711;28;20040;-78
2023/04/21 10:44:56;;;;;;;1999.90;999.90;;;13.40;99.90;;;;;;5069360;28;20116;-77
2023/04/21 10:47:27;;;;;;;1999.90;999.90;;;13.40;99.90;;;;;;5071240;28;20103;-77
2023/04/21 10:49:56;;;;;;;1999.90;999.90;;;13.30;99.90;;;;;;5068454;28;20157;-77
2023/04/21 10:52:33;;;;;;;1999.90;999.90;;;13.90;99.90;;;;;;5070172;28;20024;-77
2023/04/21 10:54:58;;;;;;;1999.90;999.90;;;14.00;99.90;;;;;;5068360;28;20068;-77
2023/04/21 10:57:24;;;;;;;1999.90;999.90;;;14.50;99.90;;;;;;5067688;28;20500;-77
2023/04/21 10:59:50;;;;;;;1999.90;999.90;;;14.20;96.50;;;;;;5049671;28;20378;-77
2023/04/21 11:02:18;;;;;;;1999.90;999.90;;;14.10;92.60;;;;;;5071197;28;20032;-77
2023/04/21 11:04:49;;;;;;;1999.90;999.90;;;15.20;92.60;;;;;;5068441;28;20147;-77
2023/04/21 11:07:16;;;;;;;1999.90;999.90;;;15.20;89.90;;;;;;5069554;28;20029;-77
2023/04/21 11:09:42;;;;;;;1999.90;999.90;;;16.20;86.10;;;;;;5067579;28;20041;-77
2023/04/21 11:12:11;;;;;;;1999.90;999.90;;;17.00;78.70;;;;;;5070902;28;20383;-77
2023/04/21 11:14:39;;;;;;;1999.90;999.90;;;17.80;71.90;;;;;;5074882;28;20025;-77
2023/04/21 11:17:10;;;;;;;1999.90;999.90;;;17.50;71.30;;;;;;5071490;28;20029;-77
2023/04/21 11:19:36;;;;;;;1999.90;999.90;;;17.60;73.10;;;;;;5075163;28;20039;-77
2023/04/21 11:22:04;;;;;;;1999.90;999.90;;;18.10;71.50;;;;;;5060015;28;20040;-77
2023/04/21 11:24:30;;;;;;;1999.90;999.90;;;17.20;70.20;;;;;;5071258;28;20093;-78
2023/04/21 11:26:56;;;;;;;1999.90;999.90;;;17.80;72.60;;;;;;5056253;28;20046;-78
2023/04/21 11:29:21;;;;;;;1999.90;999.90;;;18.60;72.00;;;;;;5076346;28;20690;-78
2023/04/21 11:31:49;;;;;;;1999.90;999.90;;;18.80;68.20;;;;;;5072756;28;20025;-78
2023/04/21 11:34:18;;;;;;;1999.90;999.90;;;18.70;66.50;;;;;;5068788;28;20033;-77
2023/04/21 11:36:45;;;;;;;1999.90;999.90;;;18.90;65.90;;;;;;5055940;28;20047;-78
2023/04/21 11:39:14;;;;;;;1074.07;570.53;;;19.10;66.40;;;;;;5052083;28;20109;-78
2023/04/21 11:41:48;;;;;;;1999.90;999.90;;;18.10;66.60;;;;;;5072889;28;20691;-78
2023/04/21 11:44:31;;;;;;;1999.90;999.90;;;18.50;66.80;;;;;;5070152;28;20025;-78
2023/04/21 11:46:57;;;;;;;1999.90;999.90;;;18.90;66.10;;;;;;5043874;28;20040;-78
2023/04/21 11:49:29;;;;;;;1999.90;999.90;;;20.00;63.70;;;;;;5076113;28;20037;-78
2023/04/21 11:51:55;;;;;;;1999.90;999.90;;;20.20;61.90;;;;;;5059695;28;20036;-77
2023/04/21 11:54:23;;;;;;;1999.90;999.90;;;20.80;61.00;;;;;;5056608;28;20099;-78
2023/04/21 11:56:49;;;;;;;1999.90;999.90;;;20.80;60.60;;;;;;5074834;28;20351;-78
2023/04/21 11:59:21;;;;;;;1999.90;999.90;;;20.80;60.80;;;;;;5077471;28;20025;-78
2023/04/21 12:01:53;;;;;;;1999.90;999.90;;;20.80;60.70;;;;;;5061188;28;20123;-78
2023/04/21 12:04:23;;;;;;;1999.90;999.90;;;21.00;58.60;;;;;;5060867;28;20029;-78